Time,TemperatureF,DewpointF,PressureIn,WindDirection,WindDirectionDegrees,WindSpeedMPH,WindSpeedGustMPH,Humidity,HourlyPrecipIn,Conditions,Clouds,dailyrainin,SolarRadiationWatts/m^2,SoftwareType,DateUTC
2013-02-09 00:00:00,17.0,12.0,-100.00,NW,315,4.0,-999.0,81,-99.99,,,-99.99,0.000000,,2013-02-09 05:00:00,
2013-02-09 00:42:00,17.0,12.0,-100.00,NW,315,4.0,-999.0,81,-99.99,,,-99.99,0.000000,,2013-02-09 05:42:00,
2013-02-09 00:52:00,17.0,12.0,-100.00,NW,315,4.0,-999.0,81,-99.99,,,-99.99,0.000000,,2013-02-09 05:52:00,
2013-02-09 03:00:00,11.0,8.0,-100.00,NW,315,1.0,-999.0,87,-99.99,,,-99.99,0.000000,,2013-02-09 08:00:00,
2013-02-09 03:42:00,11.0,8.0,-100.00,NW,315,1.0,-999.0,87,-99.99,,,-99.99,0.000000,,2013-02-09 08:42:00,
2013-02-09 03:52:00,11.0,8.0,-100.00,NW,315,1.0,-999.0,87,-99.99,,,-99.99,0.000000,,2013-02-09 08:52:00,
2013-02-09 06:00:00,7.0,4.0,-100.00,South,180,0.0,-999.0,88,-99.99,,,-99.99,0.000000,,2013-02-09 11:00:00,
2013-02-09 06:42:00,7.0,4.0,-100.00,South,180,0.0,-999.0,88,-99.99,,,-99.99,0.000000,,2013-02-09 11:42:00,
2013-02-09 06:52:00,7.0,4.0,-100.00,South,180,0.0,-999.0,88,-99.99,,,-99.99,0.000000,,2013-02-09 11:52:00,
2013-02-09 09:00:00,4.0,0.0,-100.00,South,180,0.0,-999.0,85,-99.99,,,-99.99,45.240002,,2013-02-09 14:00:00,
2013-02-09 09:42:00,4.0,0.0,-100.00,South,180,0.0,-999.0,85,-99.99,,,-99.99,45.240002,,2013-02-09 14:42:00,
2013-02-09 09:52:00,4.0,0.0,-100.00,South,180,0.0,-999.0,85,-99.99,,,-99.99,45.240002,,2013-02-09 14:52:00,
2013-02-09 12:00:00,25.0,13.0,-100.00,East,90,2.0,-999.0,60,-99.99,,,-99.99,418.760010,,2013-02-09 17:00:00,
2013-02-09 12:42:00,25.0,13.0,-100.00,East,90,2.0,-999.0,60,-99.99,,,-99.99,418.760010,,2013-02-09 17:42:00,
2013-02-09 12:52:00,25.0,13.0,-100.00,East,90,2.0,-999.0,60,-99.99,,,-99.99,418.760010,,2013-02-09 17:52:00,
2013-02-09 15:00:00,30.0,11.0,-100.00,SSE,157,2.0,-999.0,43,0.12,,,-99.99,441.959991,,2013-02-09 20:00:00,
2013-02-09 15:42:00,30.0,11.0,-100.00,SSE,157,2.0,-999.0,43,0.12,,,-99.99,441.959991,,2013-02-09 20:42:00,
2013-02-09 15:52:00,30.0,11.0,-100.00,SSE,157,2.0,-999.0,43,0.12,,,-99.99,441.959991,,2013-02-09 20:52:00,
2013-02-09 18:00:00,27.0,13.0,-100.00,South,180,4.0,-999.0,56,-99.99,,,-99.99,42.919998,,2013-02-09 23:00:00,
2013-02-09 18:42:00,27.0,13.0,-100.00,South,180,4.0,-999.0,56,-99.99,,,-99.99,42.919998,,2013-02-09 23:42:00,
2013-02-09 18:52:00,27.0,13.0,-100.00,South,180,4.0,-999.0,56,-99.99,,,-99.99,42.919998,,2013-02-09 23:52:00,
2013-02-09 21:00:00,20.0,15.0,-100.00,SSE,157,0.0,-999.0,79,-99.99,,,-99.99,0.000000,,2013-02-10 02:00:00,
2013-02-09 21:42:00,20.0,15.0,-100.00,SSE,157,0.0,-999.0,79,-99.99,,,-99.99,0.000000,,2013-02-10 02:42:00,
2013-02-09 21:52:00,20.0,15.0,-100.00,SSE,157,0.0,-999.0,79,-99.99,,,-99.99,0.000000,,2013-02-10 02:52:00,